RO-0026 weather

Salonti Airstrip
Alba, Romania

Public forecast

Using degrees Celsius for public forecast. Weather courtesy of forecast.io.

Closest aviation weather report (METAR) to Salonti Airstrip

Closest report is Sibiu International Airport, 16.7 nm (30.9 km) SE. Retrieved 2020/08/06 21:30 UTC (0 seconds ago):

LRSB 062130Z 29004KT CAVOK 17/12 Q1019

Closest aviation forecast (TAF) to Salonti Airstrip

Closest forecast is Sibiu International Airport, 16.7 nm (30.9 km) SE. Retrieved 2020/08/06 18:31 UTC (3 hours ago):

TAF LRSB 061700Z 0618/0718 VRB04KT CAVOK